createdAt,value
2023-04-27T00:00:41.500Z,3.86
2023-04-27T00:03:10.171Z,3.80
2023-04-27T00:05:39.818Z,3.77
2023-04-27T00:08:08.881Z,3.76
2023-04-27T00:10:38.751Z,3.75
2023-04-27T00:13:07.251Z,3.74
2023-04-27T00:15:35.618Z,3.74
2023-04-27T00:18:04.262Z,3.77
2023-04-27T00:20:33.960Z,3.79
2023-04-27T00:23:02.540Z,3.85
2023-04-27T00:25:30.950Z,3.94
2023-04-27T00:28:00.712Z,4.02
2023-04-27T00:30:29.110Z,4.10
2023-04-27T00:33:00.558Z,4.15
2023-04-27T00:35:28.999Z,4.21
2023-04-27T00:37:57.876Z,4.28
2023-04-27T00:40:26.608Z,4.36
2023-04-27T00:42:55.123Z,4.44
2023-04-27T00:45:27.395Z,4.51
2023-04-27T00:47:56.209Z,4.58
2023-04-27T00:50:30.461Z,4.66
2023-04-27T00:52:58.989Z,4.72
2023-04-27T00:55:27.824Z,4.78
2023-04-27T00:57:56.480Z,4.83
2023-04-27T01:00:26.577Z,4.89
2023-04-27T01:02:56.626Z,4.93
2023-04-27T01:05:26.833Z,4.97
2023-04-27T01:07:55.169Z,5.02
2023-04-27T01:10:23.853Z,5.08
2023-04-27T01:12:52.442Z,5.13
2023-04-27T01:15:20.848Z,5.18
2023-04-27T01:18:17.565Z,5.22
2023-04-27T01:20:46.208Z,5.23
2023-04-27T01:23:17.638Z,5.22
2023-04-27T01:25:47.374Z,5.16
2023-04-27T01:28:15.916Z,5.09
2023-04-27T01:30:45.385Z,4.99
2023-04-27T01:33:14.133Z,4.88
2023-04-27T01:35:42.727Z,4.77
2023-04-27T01:38:11.320Z,4.67
2023-04-27T01:40:42.610Z,4.58
2023-04-27T01:43:11.377Z,4.50
2023-04-27T01:45:39.915Z,4.42
2023-04-27T01:48:08.558Z,4.33
2023-04-27T01:50:36.985Z,4.24
2023-04-27T01:53:05.630Z,4.17
2023-04-27T01:55:36.631Z,4.11
2023-04-27T01:58:06.744Z,4.05
2023-04-27T02:00:35.300Z,3.96
2023-04-27T02:03:03.743Z,3.89
2023-04-27T02:05:32.243Z,3.84
2023-04-27T02:08:02.527Z,3.80
2023-04-27T02:10:30.985Z,3.74
2023-04-27T02:12:59.632Z,3.71
2023-04-27T02:15:29.450Z,3.66
2023-04-27T02:17:58.692Z,3.62
2023-04-27T02:20:27.097Z,3.59
2023-04-27T02:22:55.521Z,3.57
2023-04-27T02:25:24.069Z,3.55
2023-04-27T02:27:52.518Z,3.52
2023-04-27T02:30:22.458Z,3.48
2023-04-27T02:32:53.131Z,3.41
2023-04-27T02:35:21.756Z,3.36
2023-04-27T02:37:50.162Z,3.31
2023-04-27T02:40:18.705Z,3.25
2023-04-27T02:42:47.097Z,3.21
2023-04-27T02:45:15.540Z,3.15
2023-04-27T02:47:43.953Z,3.10
2023-04-27T02:50:13.991Z,3.05
2023-04-27T02:52:42.365Z,3.00
2023-04-27T02:55:11.589Z,2.97
2023-04-27T02:57:41.197Z,2.96
2023-04-27T03:00:11.866Z,2.93
2023-04-27T03:02:40.432Z,2.89
2023-04-27T03:05:09.989Z,2.82
2023-04-27T03:07:39.707Z,2.80
2023-04-27T03:10:09.121Z,2.77
2023-04-27T03:12:37.903Z,2.71
2023-04-27T03:15:07.884Z,2.67
2023-04-27T03:17:36.469Z,2.66
2023-04-27T03:20:08.641Z,2.64
2023-04-27T03:22:37.156Z,2.62
2023-04-27T03:25:08.326Z,2.61
2023-04-27T03:27:36.899Z,2.57
2023-04-27T03:30:06.217Z,2.55
2023-04-27T03:32:34.738Z,2.52
2023-04-27T03:35:03.427Z,2.52
2023-04-27T03:37:32.798Z,2.52
2023-04-27T03:40:01.243Z,2.51
2023-04-27T03:42:31.155Z,2.47
2023-04-27T03:44:59.631Z,2.45
2023-04-27T03:47:28.052Z,2.44
2023-04-27T03:49:56.520Z,2.44
2023-04-27T03:52:24.947Z,2.42
2023-04-27T03:54:53.360Z,2.42
2023-04-27T03:57:22.138Z,2.43
2023-04-27T03:59:52.019Z,2.43
2023-04-27T04:02:22.232Z,2.42
2023-04-27T04:04:51.184Z,2.38
2023-04-27T04:07:19.681Z,2.34
2023-04-27T04:09:48.027Z,2.32
2023-04-27T04:12:16.406Z,2.32
2023-04-27T04:14:44.794Z,2.33
2023-04-27T04:17:14.623Z,2.34
2023-04-27T04:19:43.044Z,2.33
2023-04-27T04:22:11.972Z,2.35
2023-04-27T04:24:40.565Z,2.40
2023-04-27T04:27:09.186Z,2.48
2023-04-27T04:29:38.968Z,2.56
2023-04-27T04:32:09.524Z,2.66
2023-04-27T04:34:39.381Z,2.75
2023-04-27T04:37:07.704Z,2.81
2023-04-27T04:39:36.083Z,2.83
2023-04-27T04:42:04.729Z,2.83
2023-04-27T04:44:33.540Z,2.85
2023-04-27T04:47:02.004Z,2.87
2023-04-27T04:49:30.469Z,2.88
2023-04-27T04:52:00.214Z,2.91
2023-04-27T04:54:28.609Z,2.92
2023-04-27T04:56:58.427Z,2.97
2023-04-27T04:59:27.110Z,3.04
2023-04-27T05:01:56.321Z,3.10
2023-04-27T05:04:25.056Z,3.20
2023-04-27T05:06:54.072Z,3.29
2023-04-27T05:09:25.186Z,3.38
2023-04-27T05:11:53.886Z,3.48
2023-04-27T05:14:22.964Z,3.58
2023-04-27T05:16:51.938Z,3.66
2023-04-27T05:19:22.069Z,3.75
2023-04-27T05:21:51.115Z,3.82
2023-04-27T05:24:20.290Z,3.93
2023-04-27T05:26:51.094Z,4.04
2023-04-27T05:29:20.420Z,4.14
2023-04-27T05:31:49.683Z,4.24
2023-04-27T05:34:18.708Z,4.35
2023-04-27T05:36:49.570Z,4.46
2023-04-27T05:39:18.587Z,4.59
2023-04-27T05:41:47.381Z,4.69
2023-04-27T05:44:17.138Z,4.83
2023-04-27T05:46:45.840Z,4.94
2023-04-27T05:49:16.824Z,5.07
2023-04-27T05:51:45.271Z,5.21
2023-04-27T05:54:13.765Z,5.33
2023-04-27T05:56:42.183Z,5.47
2023-04-27T05:59:10.928Z,5.59
2023-04-27T06:01:40.780Z,5.73
2023-04-27T06:04:09.206Z,5.85
2023-04-27T06:06:37.996Z,5.98
2023-04-27T06:09:06.733Z,6.10
2023-04-27T06:11:35.346Z,6.22
2023-04-27T06:14:03.857Z,6.34
2023-04-27T06:16:33.473Z,6.46
2023-04-27T06:19:03.700Z,6.62
2023-04-27T06:21:34.980Z,6.74
2023-04-27T06:24:03.717Z,6.87
2023-04-27T06:26:32.207Z,6.99
2023-04-27T06:29:00.629Z,7.12
2023-04-27T06:31:29.280Z,7.25
2023-04-27T06:33:57.948Z,7.38
2023-04-27T06:36:28.961Z,7.51
2023-04-27T06:38:58.110Z,7.65
2023-04-27T06:41:28.372Z,7.80
2023-04-27T06:43:58.583Z,7.92
2023-04-27T06:46:28.062Z,8.04
2023-04-27T06:48:56.553Z,8.15
2023-04-27T06:51:24.909Z,8.27
2023-04-27T06:53:57.318Z,8.42
2023-04-27T06:56:26.445Z,8.54
2023-04-27T06:58:54.941Z,8.64
2023-04-27T07:01:23.490Z,8.74
2023-04-27T07:03:53.072Z,8.85
2023-04-27T07:06:22.320Z,8.94
2023-04-27T07:08:50.905Z,9.07
2023-04-27T07:11:20.913Z,9.18
2023-04-27T07:13:49.708Z,9.27
2023-04-27T07:16:18.332Z,9.38
2023-04-27T07:18:47.158Z,9.49
2023-04-27T07:21:16.279Z,9.63
2023-04-27T07:23:46.477Z,9.72
2023-04-27T07:26:14.884Z,9.84
2023-04-27T07:28:44.837Z,9.99
2023-04-27T07:31:13.943Z,10.14
2023-04-27T07:33:42.338Z,10.22
2023-04-27T07:36:10.957Z,10.32
2023-04-27T07:38:39.554Z,10.40
2023-04-27T07:41:09.097Z,10.47
2023-04-27T07:43:37.448Z,10.56
2023-04-27T07:46:07.715Z,10.69
2023-04-27T07:48:36.197Z,10.82
2023-04-27T07:51:04.775Z,10.92
2023-04-27T07:53:36.026Z,11.00
2023-04-27T07:56:07.513Z,11.14
2023-04-27T07:58:35.894Z,11.19
2023-04-27T08:01:04.197Z,11.25
2023-04-27T08:03:34.237Z,11.37
2023-04-27T08:06:05.051Z,11.46
2023-04-27T08:08:33.777Z,11.58
2023-04-27T08:11:02.328Z,11.71
2023-04-27T08:13:31.030Z,11.86
2023-04-27T08:15:59.397Z,11.95
2023-04-27T08:18:29.076Z,12.01
2023-04-27T08:20:58.900Z,12.11
2023-04-27T08:23:29.930Z,12.25
2023-04-27T08:25:58.869Z,12.31
2023-04-27T08:28:27.412Z,12.36
2023-04-27T08:30:56.321Z,12.42
2023-04-27T08:33:24.920Z,12.51
2023-04-27T08:35:55.992Z,12.55
2023-04-27T08:38:26.117Z,12.56
2023-04-27T08:40:54.773Z,12.60
2023-04-27T08:43:23.451Z,12.60
2023-04-27T08:45:53.055Z,12.61
2023-04-27T08:48:22.278Z,12.56
2023-04-27T08:50:52.714Z,12.60
2023-04-27T08:53:22.522Z,12.70
2023-04-27T08:55:52.551Z,12.82
2023-04-27T08:58:21.420Z,12.91
2023-04-27T09:00:52.496Z,13.02
2023-04-27T09:03:25.391Z,13.23
2023-04-27T09:06:04.428Z,13.43
2023-04-27T09:08:48.082Z,13.63
2023-04-27T09:11:31.495Z,13.89
2023-04-27T09:14:01.826Z,14.13
2023-04-27T09:16:31.986Z,14.21
2023-04-27T09:19:01.238Z,14.27
2023-04-27T09:21:31.355Z,14.55
2023-04-27T09:23:59.827Z,14.74
2023-04-27T09:26:31.710Z,14.89
2023-04-27T09:29:00.050Z,15.02
2023-04-27T09:31:33.491Z,15.13
2023-04-27T09:34:01.944Z,15.31
2023-04-27T09:36:32.364Z,15.51
2023-04-27T09:39:04.601Z,15.59
2023-04-27T09:41:35.698Z,15.56
2023-04-27T09:44:04.747Z,15.66
2023-04-27T09:46:34.987Z,15.92
2023-04-27T09:49:06.310Z,15.99
2023-04-27T09:51:37.318Z,16.10
2023-04-27T09:54:07.137Z,16.29
2023-04-27T09:56:49.966Z,16.65
2023-04-27T09:59:37.798Z,16.87
2023-04-27T10:02:20.973Z,16.87
2023-04-27T10:05:20.860Z,16.92
2023-04-27T10:07:49.869Z,16.98
2023-04-27T10:10:20.787Z,17.02
2023-04-27T10:13:02.225Z,17.00
2023-04-27T10:15:32.048Z,16.93
2023-04-27T10:18:06.466Z,16.92
2023-04-27T10:20:37.905Z,16.85
2023-04-27T10:23:06.505Z,16.84
2023-04-27T10:25:41.499Z,16.81
2023-04-27T10:28:18.361Z,16.58
2023-04-27T10:30:50.156Z,16.49
2023-04-27T10:33:21.460Z,16.58
2023-04-27T10:36:00.494Z,16.46
2023-04-27T10:38:31.060Z,16.39
2023-04-27T10:41:03.392Z,16.44
2023-04-27T10:43:36.127Z,16.63
2023-04-27T10:46:13.231Z,16.79
2023-04-27T10:48:43.578Z,16.76
2023-04-27T10:51:17.453Z,16.75
2023-04-27T10:53:46.854Z,16.85
2023-04-27T10:56:15.512Z,16.82
2023-04-27T10:58:49.340Z,16.67
2023-04-27T11:01:26.990Z,16.54
2023-04-27T11:03:59.410Z,16.40
2023-04-27T11:06:30.503Z,16.29
2023-04-27T11:08:58.994Z,16.22
2023-04-27T11:11:27.821Z,16.16
2023-04-27T11:13:58.114Z,16.08
2023-04-27T11:16:26.847Z,16.08
2023-04-27T11:18:57.922Z,16.19
2023-04-27T11:21:28.614Z,16.26
2023-04-27T11:23:58.081Z,16.21
2023-04-27T11:26:27.419Z,16.17
2023-04-27T11:29:05.445Z,16.17
2023-04-27T11:31:47.679Z,16.07
2023-04-27T11:34:22.581Z,16.04
2023-04-27T11:39:37.085Z,16.24
2023-04-27T11:42:24.960Z,16.27
2023-04-27T11:45:00.256Z,16.32
2023-04-27T11:47:30.833Z,16.31
2023-04-27T11:50:02.353Z,16.25
2023-04-27T11:52:32.161Z,16.21
2023-04-27T11:55:03.378Z,16.18
2023-04-27T11:57:33.630Z,16.21
2023-04-27T12:00:10.901Z,16.29
2023-04-27T12:02:44.299Z,16.24
2023-04-27T12:05:13.952Z,16.34
2023-04-27T12:07:43.751Z,16.54
2023-04-27T12:10:13.275Z,16.77
2023-04-27T12:12:42.192Z,17.10
2023-04-27T12:15:13.054Z,17.40
2023-04-27T12:17:41.935Z,17.72
2023-04-27T12:20:12.271Z,18.06
2023-04-27T12:22:40.737Z,18.39
2023-04-27T12:25:09.971Z,18.82
2023-04-27T12:27:38.386Z,19.05
2023-04-27T12:30:08.846Z,18.86
2023-04-27T12:32:38.641Z,18.46
2023-04-27T12:35:08.570Z,18.09
2023-04-27T12:37:37.114Z,17.74
2023-04-27T12:40:07.603Z,17.56
2023-04-27T12:42:36.153Z,17.53
2023-04-27T12:45:05.208Z,17.52
2023-04-27T12:47:53.863Z,17.41
2023-04-27T12:50:25.213Z,17.31
2023-04-27T12:52:53.720Z,17.15
2023-04-27T12:55:32.162Z,16.95
2023-04-27T12:58:02.475Z,16.68
2023-04-27T13:00:31.403Z,16.43
2023-04-27T13:02:59.884Z,16.26
2023-04-27T13:05:31.782Z,16.10
2023-04-27T13:08:03.159Z,16.05
2023-04-27T13:10:32.031Z,16.13
2023-04-27T13:13:01.355Z,16.33
2023-04-27T13:15:29.923Z,16.61
2023-04-27T13:17:59.267Z,16.83
2023-04-27T13:20:29.536Z,16.88
2023-04-27T13:22:58.510Z,17.04
2023-04-27T13:25:29.670Z,17.30
2023-04-27T13:27:58.217Z,17.90
2023-04-27T13:30:26.871Z,18.27
2023-04-27T13:33:01.833Z,18.81
2023-04-27T13:35:37.168Z,19.58
2023-04-27T13:38:05.721Z,20.06
2023-04-27T13:40:34.831Z,20.48
2023-04-27T13:43:03.186Z,20.80
2023-04-27T13:45:32.414Z,21.16
2023-04-27T13:48:00.913Z,21.59
2023-04-27T13:50:29.405Z,22.03
2023-04-27T13:52:59.381Z,21.79
2023-04-27T13:55:28.582Z,21.58
2023-04-27T13:57:57.474Z,21.59
2023-04-27T14:00:28.770Z,21.94
2023-04-27T14:02:58.173Z,22.16
2023-04-27T14:05:26.801Z,22.20
2023-04-27T14:07:55.310Z,22.25
2023-04-27T14:10:26.263Z,22.25
2023-04-27T14:12:55.126Z,22.33
2023-04-27T14:15:24.074Z,22.40
2023-04-27T14:17:52.784Z,22.47
2023-04-27T14:20:28.352Z,22.44
2023-04-27T14:22:58.341Z,22.27
2023-04-27T14:25:32.828Z,21.86
2023-04-27T14:28:02.154Z,21.61
2023-04-27T14:30:30.739Z,21.68
2023-04-27T14:32:59.152Z,21.83
2023-04-27T14:35:28.757Z,21.90
2023-04-27T14:38:02.184Z,21.90
2023-04-27T14:40:32.850Z,21.74
2023-04-27T14:43:01.676Z,21.63
2023-04-27T14:45:36.991Z,21.55
2023-04-27T14:48:12.598Z,21.53
2023-04-27T14:50:41.079Z,21.66
2023-04-27T14:53:09.538Z,22.12
2023-04-27T14:55:41.156Z,22.32
2023-04-27T14:58:09.515Z,22.27
2023-04-27T15:00:38.251Z,22.06
2023-04-27T15:03:06.931Z,21.73
2023-04-27T15:05:35.570Z,21.50
2023-04-27T15:08:04.526Z,21.27
2023-04-27T15:10:32.854Z,21.23
2023-04-27T15:13:03.854Z,21.34
2023-04-27T15:15:32.486Z,21.31
2023-04-27T15:18:01.464Z,21.24
2023-04-27T15:20:30.003Z,21.14
2023-04-27T15:22:59.302Z,21.08
2023-04-27T15:25:27.918Z,21.13
2023-04-27T15:27:56.877Z,21.11
2023-04-27T15:30:27.786Z,21.08
2023-04-27T15:32:56.361Z,21.04
2023-04-27T15:35:25.083Z,21.01
2023-04-27T15:37:53.498Z,20.86
2023-04-27T15:40:22.361Z,20.56
2023-04-27T15:43:03.081Z,20.16
2023-04-27T15:45:33.465Z,19.81
2023-04-27T15:48:02.793Z,19.46
2023-04-27T15:50:31.392Z,19.11
2023-04-27T15:52:59.862Z,18.84
2023-04-27T15:55:28.636Z,18.61
2023-04-27T15:57:59.084Z,18.40
2023-04-27T16:00:28.083Z,18.18
2023-04-27T16:02:59.062Z,17.97
2023-04-27T16:05:28.771Z,17.80
2023-04-27T16:08:00.292Z,17.63
2023-04-27T16:10:28.885Z,17.47
2023-04-27T16:13:06.305Z,17.33
2023-04-27T16:15:35.458Z,17.23
2023-04-27T16:18:05.733Z,17.08
2023-04-27T16:20:36.512Z,16.99
2023-04-27T16:23:05.510Z,16.90
2023-04-27T16:25:36.796Z,16.75
2023-04-27T16:28:05.467Z,16.61
2023-04-27T16:30:33.895Z,16.47
2023-04-27T16:33:02.294Z,16.38
2023-04-27T16:35:33.603Z,16.29
2023-04-27T16:38:02.226Z,16.20
2023-04-27T16:40:30.712Z,16.10
2023-04-27T16:42:59.203Z,16.01
2023-04-27T16:45:28.891Z,15.94
2023-04-27T16:47:59.661Z,15.87
2023-04-27T16:50:31.562Z,15.81
2023-04-27T16:53:07.351Z,15.75
2023-04-27T16:55:36.027Z,15.71
2023-04-27T16:58:04.454Z,15.62
2023-04-27T17:00:33.404Z,15.50
2023-04-27T17:03:01.904Z,15.38
2023-04-27T17:05:30.603Z,15.24
2023-04-27T17:07:59.105Z,15.11
2023-04-27T17:10:29.335Z,15.02
2023-04-27T17:12:58.366Z,14.91
2023-04-27T17:15:28.850Z,14.80
2023-04-27T17:17:57.898Z,14.73
2023-04-27T17:20:26.852Z,14.57
2023-04-27T17:22:55.237Z,14.44
2023-04-27T17:25:23.927Z,14.36
2023-04-27T17:27:53.889Z,14.25
2023-04-27T17:30:24.110Z,14.12
2023-04-27T17:32:53.088Z,13.98
2023-04-27T17:35:21.774Z,13.87
2023-04-27T17:37:50.201Z,13.82
2023-04-27T17:40:21.263Z,13.73
2023-04-27T17:42:49.956Z,13.59
2023-04-27T17:45:20.241Z,13.43
2023-04-27T17:47:48.690Z,13.30
2023-04-27T17:50:17.486Z,13.18
2023-04-27T17:52:47.527Z,13.06
2023-04-27T17:55:15.879Z,12.97
2023-04-27T17:57:44.267Z,12.87
2023-04-27T18:00:14.968Z,12.77
2023-04-27T18:02:45.425Z,12.69
2023-04-27T18:05:13.919Z,12.61
2023-04-27T18:07:42.544Z,12.52
2023-04-27T18:10:11.434Z,12.48
2023-04-27T18:12:40.022Z,12.44
2023-04-27T18:15:10.085Z,12.39
2023-04-27T18:17:38.734Z,12.31
2023-04-27T18:20:10.784Z,12.25
2023-04-27T18:22:40.160Z,12.15
2023-04-27T18:25:10.977Z,12.07
2023-04-27T18:27:39.410Z,11.98
2023-04-27T18:30:09.487Z,11.89
2023-04-27T18:32:38.207Z,11.81
2023-04-27T18:35:10.308Z,11.72
2023-04-27T18:37:38.639Z,11.64
2023-04-27T18:40:09.177Z,11.58
2023-04-27T18:42:37.639Z,11.54
2023-04-27T18:45:07.919Z,11.47
2023-04-27T18:47:36.606Z,11.40
2023-04-27T18:50:05.876Z,11.36
2023-04-27T18:52:35.696Z,11.30
2023-04-27T18:55:04.907Z,11.24
2023-04-27T18:57:33.312Z,11.16
2023-04-27T19:00:01.646Z,11.12
2023-04-27T19:02:30.090Z,11.04
2023-04-27T19:05:10.894Z,10.99
2023-04-27T19:07:41.742Z,10.92
2023-04-27T19:10:12.122Z,10.87
2023-04-27T19:12:40.504Z,10.83
2023-04-27T19:15:09.682Z,10.78
2023-04-27T19:17:38.304Z,10.73
2023-04-27T19:20:09.297Z,10.68
2023-04-27T19:22:37.984Z,10.64
2023-04-27T19:25:09.685Z,10.60
2023-04-27T19:27:38.328Z,10.56
2023-04-27T19:30:08.754Z,10.53
2023-04-27T19:32:37.413Z,10.51
2023-04-27T19:35:08.551Z,10.47
2023-04-27T19:37:40.380Z,10.44
2023-04-27T19:40:12.237Z,10.43
2023-04-27T19:42:40.701Z,10.41
2023-04-27T19:45:10.844Z,10.40
2023-04-27T19:47:39.244Z,10.38
2023-04-27T19:50:09.169Z,10.35
2023-04-27T19:52:37.695Z,10.32
2023-04-27T19:55:07.209Z,10.31
2023-04-27T19:57:37.005Z,10.28
2023-04-27T20:00:11.759Z,10.27
2023-04-27T20:02:40.508Z,10.25
2023-04-27T20:05:10.738Z,10.21
2023-04-27T20:07:39.307Z,10.19
2023-04-27T20:10:08.851Z,10.16
2023-04-27T20:12:54.627Z,10.12
2023-04-27T20:15:25.266Z,10.06
2023-04-27T20:17:54.246Z,10.04
2023-04-27T20:20:22.938Z,10.01
2023-04-27T20:22:51.462Z,9.98
2023-04-27T20:25:23.205Z,9.94
2023-04-27T20:27:53.561Z,9.92
2023-04-27T20:30:22.576Z,9.87
2023-04-27T20:32:51.521Z,9.85
2023-04-27T20:35:20.634Z,9.82
2023-04-27T20:37:48.992Z,9.78
2023-04-27T20:40:18.387Z,9.74
2023-04-27T20:42:49.550Z,9.71
2023-04-27T20:45:20.511Z,9.67
2023-04-27T20:47:49.021Z,9.64
2023-04-27T20:50:18.745Z,9.61
2023-04-27T20:52:47.612Z,9.59
2023-04-27T20:55:15.970Z,9.57
2023-04-27T20:57:44.358Z,9.56
2023-04-27T21:00:15.636Z,9.54
2023-04-27T21:02:45.664Z,9.53
2023-04-27T21:05:14.047Z,9.52
2023-04-27T21:07:42.357Z,9.50
2023-04-27T21:10:12.860Z,9.48
2023-04-27T21:12:41.525Z,9.49
2023-04-27T21:15:11.344Z,9.47
2023-04-27T21:17:39.877Z,9.45
2023-04-27T21:20:12.434Z,9.44
2023-04-27T21:22:41.021Z,9.40
2023-04-27T21:25:12.218Z,9.38
2023-04-27T21:27:40.874Z,9.36
2023-04-27T21:30:11.268Z,9.33
2023-04-27T21:32:39.790Z,9.27
2023-04-27T21:35:11.115Z,9.24
2023-04-27T21:37:39.486Z,9.20
2023-04-27T21:40:09.506Z,9.15
2023-04-27T21:42:37.879Z,9.11
2023-04-27T21:45:07.607Z,9.07
2023-04-27T21:47:36.336Z,9.02
2023-04-27T21:50:05.916Z,8.97
2023-04-27T21:52:38.708Z,8.91
2023-04-27T21:55:08.064Z,8.84
2023-04-27T21:57:37.296Z,8.79
2023-04-27T22:00:13.498Z,8.74
2023-04-27T22:02:43.420Z,8.68
2023-04-27T22:05:12.313Z,8.63
2023-04-27T22:07:48.163Z,8.58
2023-04-27T22:10:16.664Z,8.51
2023-04-27T22:12:46.915Z,8.46
2023-04-27T22:15:15.653Z,8.40
2023-04-27T22:17:44.183Z,8.32
2023-04-27T22:20:14.305Z,8.26
2023-04-27T22:22:44.764Z,8.20
2023-04-27T22:25:13.881Z,8.12
2023-04-27T22:27:45.440Z,8.08
2023-04-27T22:30:16.361Z,8.02
2023-04-27T22:32:44.950Z,7.96
2023-04-27T22:35:25.814Z,7.89
2023-04-27T22:37:58.139Z,7.83
2023-04-27T22:40:27.076Z,7.78
2023-04-27T22:42:56.359Z,7.73
2023-04-27T22:45:25.617Z,7.68
2023-04-27T22:47:54.168Z,7.62
2023-04-27T22:50:25.394Z,7.58
2023-04-27T22:52:54.028Z,7.54
2023-04-27T22:55:23.923Z,7.51
2023-04-27T22:57:53.972Z,7.47
2023-04-27T23:00:23.370Z,7.45
2023-04-27T23:02:52.109Z,7.41
2023-04-27T23:05:21.116Z,7.40
2023-04-27T23:07:51.920Z,7.37
2023-04-27T23:10:21.337Z,7.35
2023-04-27T23:12:55.301Z,7.35
2023-04-27T23:15:24.660Z,7.36
2023-04-27T23:17:53.964Z,7.38
2023-04-27T23:22:54.375Z,7.46
2023-04-27T23:25:24.907Z,7.52
2023-04-27T23:27:58.173Z,7.57
2023-04-27T23:30:26.693Z,7.62
2023-04-27T23:32:55.332Z,7.66
2023-04-27T23:35:24.050Z,7.67
2023-04-27T23:37:53.167Z,7.68
2023-04-27T23:40:21.895Z,7.70
2023-04-27T23:42:51.820Z,7.68
2023-04-27T23:45:21.924Z,7.66
2023-04-27T23:47:51.568Z,7.64
2023-04-27T23:50:20.358Z,7.61
2023-04-27T23:52:49.706Z,7.55
2023-04-27T23:55:18.807Z,7.49
2023-04-27T23:57:47.431Z,7.44
